Time;durP1;ratioP1;P1;durP2;ratioP2;P2;SDS_P1;SDS_P2;PMS_P1;PMS_P2;Temp;Humidity;BMP_temperature;BMP_pressure;BME280_temperature;BME280_humidity;BME280_pressure;Samples;Min_cycle;Max_cycle;Signal;HPM_P1;HPM_P2
2022/05/08 00:01:02;;;;;;;3.33;1.60;;;16.70;57.40;;;;;;4955988;28;20322;-75
2022/05/08 00:03:32;;;;;;;3.47;1.93;;;16.70;57.40;;;;;;4958579;28;20914;-75
2022/05/08 00:06:02;;;;;;;7.07;1.80;;;16.70;57.40;;;;;;4962615;28;20204;-76
2022/05/08 00:08:31;;;;;;;4.17;1.70;;;16.70;57.30;;;;;;4953424;28;20202;-76
2022/05/08 00:10:59;;;;;;;5.47;2.33;;;16.60;57.30;;;;;;4956799;28;20293;-76
2022/05/08 00:13:30;;;;;;;2.97;1.50;;;16.60;57.50;;;;;;4956203;28;20195;-77
2022/05/08 00:15:58;;;;;;;3.43;1.50;;;16.60;57.60;;;;;;4963010;28;20202;-76
2022/05/08 00:18:27;;;;;;;4.07;1.90;;;16.60;57.80;;;;;;4965992;28;20193;-75
2022/05/08 00:20:56;;;;;;;7.07;2.30;;;16.50;57.70;;;;;;4963878;28;20722;-76
2022/05/08 00:23:25;;;;;;;8.37;2.27;;;16.60;58.00;;;;;;4965468;28;20198;-75
2022/05/08 00:25:53;;;;;;;7.63;1.83;;;16.50;57.90;;;;;;4962650;28;20213;-76
2022/05/08 00:28:22;;;;;;;7.27;1.90;;;16.50;58.10;;;;;;4966388;28;20198;-75
2022/05/08 00:30:50;;;;;;;9.73;2.40;;;16.50;58.00;;;;;;4965400;28;20196;-75
2022/05/08 00:33:18;;;;;;;7.07;1.73;;;16.50;58.10;;;;;;4963094;28;20236;-75
2022/05/08 00:35:47;;;;;;;4.77;2.10;;;16.40;58.10;;;;;;4962624;28;20202;-76
2022/05/08 00:38:16;;;;;;;10.27;2.47;;;16.40;58.30;;;;;;4964879;28;20882;-76
2022/05/08 00:40:45;;;;;;;4.60;2.03;;;16.40;58.30;;;;;;4963979;28;20200;-75
2022/05/08 00:43:32;;;;;;;4.03;1.87;;;16.40;58.40;;;;;;4963525;28;20198;-76
2022/05/08 00:46:02;;;;;;;3.67;2.13;;;16.30;58.50;;;;;;4959478;28;20194;-76
2022/05/08 00:48:31;;;;;;;8.20;2.17;;;16.30;58.60;;;;;;4961523;28;20194;-75
2022/05/08 00:51:00;;;;;;;5.07;2.20;;;16.30;58.70;;;;;;4964377;28;20229;-76
2022/05/08 00:53:36;;;;;;;4.63;2.40;;;16.30;59.00;;;;;;4963504;28;20268;-76
2022/05/08 00:56:06;;;;;;;4.40;2.27;;;16.20;59.30;;;;;;4960784;28;21040;-76
2022/05/08 00:58:36;;;;;;;5.60;2.63;;;16.20;60.00;;;;;;4965171;28;20193;-75
2022/05/08 01:01:05;;;;;;;5.53;2.70;;;16.10;60.20;;;;;;4964263;28;20213;-76
2022/05/08 01:03:34;;;;;;;6.57;2.40;;;16.00;60.80;;;;;;4963830;28;20415;-75
2022/05/08 01:06:06;;;;;;;10.23;3.30;;;16.00;61.10;;;;;;4962028;28;20436;-77
2022/05/08 01:08:38;;;;;;;5.33;2.90;;;15.90;62.50;;;;;;4961386;28;20611;-76
2022/05/08 01:11:08;;;;;;;6.30;3.00;;;15.80;62.70;;;;;;4960881;28;20737;-76
2022/05/08 01:13:36;;;;;;;7.10;2.93;;;15.80;62.60;;;;;;4962349;28;21402;-75
2022/05/08 01:16:08;;;;;;;9.37;2.60;;;15.70;62.60;;;;;;4962879;28;20270;-76
2022/05/08 01:18:43;;;;;;;5.60;2.50;;;15.70;62.60;;;;;;4959957;28;20193;-76
2022/05/08 01:21:15;;;;;;;4.27;2.60;;;15.60;62.60;;;;;;4964850;28;20284;-75
2022/05/08 01:23:45;;;;;;;7.97;2.53;;;15.60;62.40;;;;;;4961133;28;20185;-75
2022/05/08 01:26:20;;;;;;;6.37;2.73;;;15.60;62.40;;;;;;4960517;28;20202;-76
2022/05/08 01:28:49;;;;;;;6.03;2.80;;;15.50;62.30;;;;;;4959067;28;20197;-75
2022/05/08 01:31:17;;;;;;;7.83;3.10;;;15.50;62.50;;;;;;4960828;28;20208;-75
2022/05/08 01:33:45;;;;;;;8.07;3.07;;;15.50;62.50;;;;;;4962175;28;20573;-76
2022/05/08 01:36:14;;;;;;;9.90;2.60;;;15.50;62.50;;;;;;4961130;28;20233;-76
2022/05/08 01:38:44;;;;;;;4.57;2.57;;;15.50;62.50;;;;;;4959912;28;20561;-75
2022/05/08 01:41:12;;;;;;;5.67;2.60;;;15.50;62.50;;;;;;4963171;28;20696;-75
2022/05/08 01:43:41;;;;;;;6.30;2.50;;;15.40;62.50;;;;;;4961372;28;20233;-75
2022/05/08 01:46:10;;;;;;;7.20;3.03;;;15.40;62.70;;;;;;4960295;28;20190;-76
2022/05/08 01:48:39;;;;;;;5.87;3.00;;;15.40;63.00;;;;;;4963260;28;20209;-75
2022/05/08 01:51:07;;;;;;;9.17;2.63;;;15.30;63.40;;;;;;4963142;28;21187;-76
2022/05/08 01:53:36;;;;;;;5.17;2.50;;;15.20;63.90;;;;;;4963680;28;20197;-75
2022/05/08 01:56:08;;;;;;;7.07;2.50;;;15.20;64.00;;;;;;4958662;28;20201;-77
2022/05/08 01:58:36;;;;;;;4.73;2.50;;;15.20;64.30;;;;;;4960062;28;20244;-76
2022/05/08 02:01:09;;;;;;;4.40;2.40;;;15.10;64.20;;;;;;4960820;28;20235;-76
2022/05/08 02:03:38;;;;;;;5.17;2.40;;;15.10;64.20;;;;;;4964226;28;20701;-76
2022/05/08 02:06:07;;;;;;;7.00;2.60;;;15.10;64.80;;;;;;4962483;28;20201;-76
2022/05/08 02:08:35;;;;;;;5.77;2.73;;;15.00;64.60;;;;;;4959651;28;20209;-76
2022/05/08 02:11:05;;;;;;;4.57;2.40;;;15.00;64.90;;;;;;4955699;28;20205;-75
2022/05/08 02:13:36;;;;;;;3.97;2.50;;;15.00;64.70;;;;;;4958320;28;20194;-76
2022/05/08 02:16:04;;;;;;;8.17;2.70;;;15.00;64.90;;;;;;4961951;28;20218;-76
2022/05/08 02:18:33;;;;;;;7.10;2.80;;;14.90;64.70;;;;;;4958857;28;20186;-75
2022/05/08 02:21:01;;;;;;;7.43;2.80;;;14.90;64.70;;;;;;4962240;28;20256;-75
2022/05/08 02:23:30;;;;;;;7.50;2.80;;;14.90;64.70;;;;;;4961451;28;20840;-75
2022/05/08 02:25:58;;;;;;;5.37;2.87;;;14.90;64.80;;;;;;4959535;28;20858;-75
2022/05/08 02:28:26;;;;;;;4.80;2.40;;;14.90;64.80;;;;;;4958261;28;20865;-75
2022/05/08 02:30:56;;;;;;;7.33;2.93;;;14.90;64.60;;;;;;4953263;28;20198;-76
2022/05/08 02:33:24;;;;;;;5.70;2.53;;;14.80;64.70;;;;;;4959548;28;20194;-75
2022/05/08 02:35:53;;;;;;;5.07;2.50;;;14.90;64.60;;;;;;4960914;28;20640;-75
2022/05/08 02:38:21;;;;;;;9.93;2.63;;;14.90;64.90;;;;;;4961808;28;20648;-75
2022/05/08 02:40:49;;;;;;;6.67;3.00;;;14.80;64.70;;;;;;4961993;28;20202;-76
2022/05/08 02:43:20;;;;;;;5.07;2.70;;;14.80;65.20;;;;;;4958405;28;20221;-75
2022/05/08 02:45:49;;;;;;;6.43;2.93;;;14.80;65.20;;;;;;4963277;28;20313;-75
2022/05/08 02:48:19;;;;;;;6.93;3.03;;;14.80;65.50;;;;;;4961903;28;20193;-75
2022/05/08 02:50:47;;;;;;;8.63;2.67;;;14.80;65.20;;;;;;4963061;28;20197;-75
2022/05/08 02:53:15;;;;;;;5.20;2.80;;;14.80;65.20;;;;;;4960628;28;20213;-75
2022/05/08 02:58:36;;;;;;;5.10;2.70;;;14.90;65.10;;;;;;4963291;28;20194;-75
2022/05/08 03:01:06;;;;;;;5.73;2.90;;;14.80;65.10;;;;;;4960887;28;20197;-75
2022/05/08 03:03:36;;;;;;;6.53;2.90;;;14.90;65.40;;;;;;4956000;28;20312;-75
2022/05/08 03:06:07;;;;;;;10.70;3.10;;;14.90;65.50;;;;;;4954814;28;20224;-75
2022/05/08 03:08:35;;;;;;;7.93;3.17;;;14.80;65.30;;;;;;4958748;28;20205;-77
2022/05/08 03:13:50;;;;;;;10.13;3.33;;;14.90;66.90;;;;;;4958175;28;20204;-75
2022/05/08 03:16:18;;;;;;;6.37;2.70;;;14.90;66.40;;;;;;4958856;28;20221;-75
2022/05/08 03:18:48;;;;;;;6.87;2.87;;;14.90;66.20;;;;;;4960193;28;20284;-77
2022/05/08 03:21:18;;;;;;;8.27;2.87;;;14.90;66.20;;;;;;4963386;28;20198;-75
2022/05/08 03:23:47;;;;;;;7.50;3.10;;;15.00;66.00;;;;;;4959927;28;20237;-76
2022/05/08 03:26:19;;;;;;;7.03;3.13;;;15.00;65.80;;;;;;4957923;28;20921;-74
2022/05/08 03:28:48;;;;;;;5.50;2.80;;;15.00;65.80;;;;;;4963188;28;20659;-74
2022/05/08 03:31:17;;;;;;;5.70;2.70;;;15.00;65.60;;;;;;4959156;28;20197;-75
2022/05/08 03:33:45;;;;;;;6.83;2.80;;;15.10;65.60;;;;;;4959526;28;20229;-76
2022/05/08 03:36:15;;;;;;;6.97;2.53;;;15.10;65.60;;;;;;4960181;28;20276;-75
2022/05/08 03:38:44;;;;;;;7.83;2.63;;;15.10;65.90;;;;;;4962550;28;20221;-75
2022/05/08 03:41:15;;;;;;;7.13;2.70;;;15.10;65.80;;;;;;4958674;28;20212;-75
2022/05/08 03:43:45;;;;;;;8.83;3.20;;;15.10;65.60;;;;;;4960242;28;21026;-76
2022/05/08 03:46:14;;;;;;;6.13;2.90;;;15.10;65.90;;;;;;4957478;28;20206;-75
2022/05/08 03:48:43;;;;;;;5.03;2.87;;;15.10;66.10;;;;;;4957821;28;20201;-76
2022/05/08 03:51:12;;;;;;;8.00;3.40;;;15.10;66.20;;;;;;4964365;28;20206;-76
2022/05/08 03:53:41;;;;;;;6.63;3.00;;;15.20;67.10;;;;;;4964062;28;20214;-76
2022/05/08 03:56:10;;;;;;;8.60;3.43;;;15.20;66.20;;;;;;4960249;28;20281;-75
2022/05/08 03:58:38;;;;;;;8.70;3.20;;;15.20;66.70;;;;;;4965130;28;20564;-76
2022/05/08 04:01:06;;;;;;;6.70;3.30;;;15.20;66.60;;;;;;4963200;28;20893;-75
2022/05/08 04:03:35;;;;;;;18.17;2.93;;;15.20;66.50;;;;;;4961310;28;20221;-75
2022/05/08 04:06:04;;;;;;;6.80;3.23;;;15.20;66.50;;;;;;4966332;28;20205;-75
2022/05/08 04:08:33;;;;;;;5.50;2.80;;;15.20;66.60;;;;;;4964650;28;20198;-75
2022/05/08 04:11:03;;;;;;;10.90;2.63;;;15.20;66.50;;;;;;4958494;28;20213;-75
2022/05/08 04:13:32;;;;;;;7.07;2.90;;;15.20;66.60;;;;;;4959351;28;20728;-75
2022/05/08 04:16:21;;;;;;;6.80;3.00;;;15.20;66.50;;;;;;4957581;28;20197;-76
2022/05/08 04:18:51;;;;;;;6.97;2.80;;;15.20;66.30;;;;;;4956217;28;20621;-75
2022/05/08 04:21:19;;;;;;;5.37;2.93;;;15.30;66.60;;;;;;4961779;28;20543;-75
2022/05/08 04:26:35;;;;;;;7.73;3.20;;;15.40;66.40;;;;;;4960961;28;20186;-75
2022/05/08 04:29:04;;;;;;;7.23;2.60;;;15.40;66.30;;;;;;4966372;28;20233;-75
2022/05/08 04:31:32;;;;;;;8.23;2.87;;;15.50;66.40;;;;;;4960906;28;20197;-76
2022/05/08 04:34:01;;;;;;;4.93;2.80;;;15.50;66.30;;;;;;4960546;28;20194;-75
2022/05/08 04:36:30;;;;;;;4.70;2.67;;;15.50;66.40;;;;;;4957658;28;20193;-75
2022/05/08 04:38:59;;;;;;;6.00;2.43;;;15.60;66.40;;;;;;4960583;28;20811;-75
2022/05/08 04:41:28;;;;;;;3.90;2.47;;;15.60;66.40;;;;;;4965899;28;20332;-76
2022/05/08 04:44:00;;;;;;;6.23;2.63;;;15.60;66.30;;;;;;4962725;28;20218;-76
2022/05/08 04:46:29;;;;;;;6.03;2.37;;;15.70;66.30;;;;;;4962916;28;20198;-75
2022/05/08 04:48:58;;;;;;;4.40;2.30;;;15.70;66.10;;;;;;4964110;28;20257;-76
2022/05/08 04:51:27;;;;;;;7.27;2.67;;;15.70;66.00;;;;;;4965341;28;20198;-76
2022/05/08 04:53:55;;;;;;;6.15;2.30;;;15.80;66.10;;;;;;4961246;28;20389;-77
2022/05/08 04:56:23;;;;;;;3.53;2.10;;;15.80;65.90;;;;;;4963935;28;20186;-76
2022/05/08 04:58:52;;;;;;;9.20;2.70;;;15.80;66.00;;;;;;4956302;28;20201;-76
2022/05/08 05:01:22;;;;;;;7.83;2.37;;;15.90;65.80;;;;;;4960836;28;20220;-76
2022/05/08 05:03:51;;;;;;;5.97;2.20;;;16.00;65.80;;;;;;4954645;28;20220;-77
2022/05/08 05:06:25;;;;;;;5.13;1.87;;;16.00;65.80;;;;;;4958980;28;20910;-76
2022/05/08 05:08:53;;;;;;;6.17;2.00;;;16.00;65.70;;;;;;4956834;28;20197;-75
2022/05/08 05:11:22;;;;;;;8.37;2.23;;;16.10;65.50;;;;;;4962389;28;20253;-76
2022/05/08 05:13:50;;;;;;;3.33;2.00;;;16.10;65.40;;;;;;4956090;28;20194;-76
2022/05/08 05:16:18;;;;;;;6.80;2.27;;;16.20;65.20;;;;;;4959109;28;20321;-77
2022/05/08 05:18:48;;;;;;;5.03;2.13;;;16.20;65.00;;;;;;4959747;28;20253;-76
2022/05/08 05:21:17;;;;;;;4.80;1.83;;;16.30;64.90;;;;;;4958106;28;20210;-75
2022/05/08 05:23:45;;;;;;;3.33;1.77;;;16.30;64.70;;;;;;4952907;28;20305;-77
2022/05/08 05:26:13;;;;;;;5.00;2.30;;;16.40;64.50;;;;;;4957975;28;20201;-77
2022/05/08 05:28:44;;;;;;;6.70;2.20;;;16.40;64.30;;;;;;4955675;28;20225;-78
2022/05/08 05:31:13;;;;;;;4.27;2.00;;;16.40;64.30;;;;;;4955755;28;20194;-76
2022/05/08 05:33:42;;;;;;;6.10;2.10;;;16.50;64.00;;;;;;4954213;28;20198;-76
2022/05/08 05:36:12;;;;;;;3.73;2.17;;;16.50;63.80;;;;;;4953394;28;20198;-76
2022/05/08 05:38:40;;;;;;;5.50;2.10;;;16.60;63.80;;;;;;4958109;28;20197;-77
2022/05/08 05:41:08;;;;;;;5.77;2.00;;;16.60;63.60;;;;;;4960089;28;20206;-75
2022/05/08 05:43:37;;;;;;;6.45;2.30;;;16.70;63.40;;;;;;4954821;28;21147;-78
2022/05/08 05:48:51;;;;;;;5.60;1.90;;;16.80;63.30;;;;;;4961749;28;20292;-75
2022/05/08 05:51:21;;;;;;;3.90;1.97;;;16.80;63.30;;;;;;4964769;28;20205;-75
2022/05/08 05:53:49;;;;;;;3.83;2.00;;;16.90;63.40;;;;;;4964636;28;20202;-76
2022/05/08 05:56:18;;;;;;;11.87;2.33;;;16.90;63.40;;;;;;4959326;28;20237;-75
2022/05/08 05:58:46;;;;;;;4.30;2.00;;;17.00;63.00;;;;;;4966460;28;20217;-76
2022/05/08 06:01:17;;;;;;;5.83;1.83;;;17.00;62.80;;;;;;4961224;28;20248;-76
2022/05/08 06:03:45;;;;;;;5.07;1.70;;;17.10;62.60;;;;;;4954390;28;20198;-75
2022/05/08 06:06:14;;;;;;;10.07;2.40;;;17.10;62.30;;;;;;4960208;28;20202;-77
2022/05/08 06:08:44;;;;;;;4.67;1.70;;;17.10;62.10;;;;;;4956540;28;20874;-75
2022/05/08 06:11:12;;;;;;;8.57;1.80;;;17.20;62.00;;;;;;4958834;28;20213;-76
2022/05/08 06:13:41;;;;;;;7.50;2.03;;;17.20;62.00;;;;;;4953591;28;20191;-75
2022/05/08 06:16:09;;;;;;;4.13;2.00;;;17.30;62.20;;;;;;4957754;28;20217;-75
2022/05/08 06:18:38;;;;;;;6.90;1.90;;;17.30;62.00;;;;;;4957632;28;20190;-75
2022/05/08 06:21:06;;;;;;;5.47;2.47;;;17.30;62.10;;;;;;4955711;28;20204;-76
2022/05/08 06:23:35;;;;;;;4.80;2.27;;;17.30;62.30;;;;;;4954561;28;20202;-75
2022/05/08 06:26:05;;;;;;;9.47;2.10;;;17.30;62.30;;;;;;4953441;28;20229;-76
2022/05/08 06:28:34;;;;;;;10.30;2.80;;;17.40;62.40;;;;;;4948812;28;21053;-76
2022/05/08 06:31:02;;;;;;;5.87;2.33;;;17.40;62.30;;;;;;4948965;28;20208;-75
2022/05/08 06:33:30;;;;;;;7.00;2.30;;;17.50;62.40;;;;;;4960169;28;20659;-76
2022/05/08 06:35:59;;;;;;;4.60;2.00;;;17.60;62.50;;;;;;4964725;28;20194;-76
2022/05/08 06:38:27;;;;;;;6.83;1.93;;;17.60;62.70;;;;;;4959270;28;20715;-76
2022/05/08 06:40:56;;;;;;;3.67;1.97;;;17.70;62.80;;;;;;4954694;28;20189;-76
2022/05/08 06:43:25;;;;;;;3.93;2.10;;;17.70;62.90;;;;;;4965350;28;20205;-75
2022/05/08 06:45:54;;;;;;;4.73;2.10;;;17.80;62.60;;;;;;4959065;28;20217;-77
2022/05/08 06:48:22;;;;;;;11.73;2.33;;;17.90;62.50;;;;;;4958596;28;20202;-75
2022/05/08 06:50:50;;;;;;;6.70;1.80;;;18.00;62.20;;;;;;4965097;28;20202;-75
2022/05/08 06:53:19;;;;;;;8.97;2.43;;;18.10;62.10;;;;;;4951154;28;20210;-74
2022/05/08 06:55:47;;;;;;;8.60;2.03;;;18.20;61.90;;;;;;4959757;28;20197;-75
2022/05/08 06:58:15;;;;;;;5.63;2.30;;;18.20;61.90;;;;;;4964335;28;20198;-76
2022/05/08 07:03:30;;;;;;;5.87;1.63;;;18.40;61.80;;;;;;4941597;28;20192;-77
2022/05/08 07:06:00;;;;;;;3.63;1.40;;;18.50;58.20;;;;;;4964239;28;20291;-78
2022/05/08 07:08:29;;;;;;;4.40;1.60;;;18.60;57.10;;;;;;4960877;28;20406;-75
2022/05/08 07:10:58;;;;;;;4.67;1.53;;;18.70;55.30;;;;;;4954976;28;20693;-76
2022/05/08 07:13:26;;;;;;;4.33;1.23;;;18.80;55.70;;;;;;4963677;28;20208;-78
2022/05/08 07:15:59;;;;;;;6.30;1.43;;;18.90;50.80;;;;;;4959816;28;20786;-79
2022/05/08 07:18:29;;;;;;;3.40;1.00;;;19.00;51.50;;;;;;4959342;28;20205;-78
2022/05/08 07:21:00;;;;;;;6.67;1.40;;;19.10;49.40;;;;;;4962517;28;20256;-77
2022/05/08 07:23:34;;;;;;;2.67;1.43;;;19.20;49.40;;;;;;4964292;28;20205;-75
2022/05/08 07:26:02;;;;;;;2.97;1.63;;;19.30;50.00;;;;;;4964872;28;20214;-76
2022/05/08 07:28:31;;;;;;;2.50;1.40;;;19.40;49.80;;;;;;4966285;28;20193;-78
2022/05/08 07:31:05;;;;;;;3.97;1.60;;;19.50;46.30;;;;;;4961425;28;20536;-79
2022/05/08 07:33:40;;;;;;;3.53;1.10;;;19.60;44.90;;;;;;4964313;28;20198;-77
2022/05/08 07:36:13;;;;;;;4.93;1.50;;;19.70;46.20;;;;;;4965570;28;20193;-77
2022/05/08 07:38:43;;;;;;;2.60;1.27;;;19.80;46.90;;;;;;4962795;28;20225;-78
2022/05/08 07:41:12;;;;;;;2.57;1.40;;;19.80;46.10;;;;;;4960692;28;20201;-76
2022/05/08 07:43:44;;;;;;;2.43;1.10;;;19.90;45.00;;;;;;4959455;28;20349;-77
2022/05/08 07:46:15;;;;;;;4.23;1.40;;;20.00;41.50;;;;;;4966187;28;20213;-76
2022/05/08 07:48:45;;;;;;;4.13;1.43;;;20.00;42.10;;;;;;4967040;28;20194;-77
2022/05/08 07:51:15;;;;;;;3.70;1.60;;;20.10;43.40;;;;;;4966616;28;20805;-79
2022/05/08 07:53:43;;;;;;;5.90;1.50;;;20.10;44.30;;;;;;4963611;28;20616;-75
2022/05/08 07:56:12;;;;;;;2.33;1.20;;;20.20;44.90;;;;;;4964160;28;20216;-77
2022/05/08 07:58:40;;;;;;;2.90;1.20;;;20.30;44.80;;;;;;4966155;28;20205;-78
2022/05/08 08:01:10;;;;;;;2.77;1.40;;;20.30;44.60;;;;;;4967641;28;20193;-78
2022/05/08 08:03:41;;;;;;;4.77;1.33;;;20.40;44.30;;;;;;4964503;28;20252;-79
2022/05/08 08:06:09;;;;;;;4.80;1.50;;;20.40;44.00;;;;;;4965757;28;20292;-78
2022/05/08 08:08:41;;;;;;;3.83;1.20;;;20.50;44.30;;;;;;4966079;28;20664;-79
2022/05/08 08:11:11;;;;;;;2.70;1.20;;;20.60;44.70;;;;;;4961163;28;20206;-78
2022/05/08 08:13:39;;;;;;;3.70;1.20;;;20.70;44.90;;;;;;4959604;28;20288;-77
2022/05/08 08:16:09;;;;;;;3.00;1.30;;;20.70;45.00;;;;;;4966015;28;20233;-78
2022/05/08 08:18:38;;;;;;;6.57;1.30;;;20.80;45.30;;;;;;4965611;28;20297;-76
2022/05/08 08:21:14;;;;;;;4.80;2.10;;;20.80;45.80;;;;;;4966298;28;20205;-78
2022/05/08 08:23:44;;;;;;;4.32;1.70;;;20.90;45.90;;;;;;4964557;28;20206;-78
2022/05/08 08:26:14;;;;;;;5.43;1.70;;;20.90;46.10;;;;;;4967748;28;20722;-78
2022/05/08 08:28:42;;;;;;;5.97;1.35;;;21.00;45.80;;;;;;4966726;28;20195;-76
2022/05/08 08:31:11;;;;;;;6.40;1.60;;;21.00;45.50;;;;;;4963588;28;20202;-76
2022/05/08 08:33:41;;;;;;;3.42;1.30;;;21.10;45.90;;;;;;4964852;28;20209;-76
2022/05/08 08:36:11;;;;;;;5.07;1.35;;;21.10;46.30;;;;;;4967308;28;20202;-76
2022/05/08 08:38:40;;;;;;;3.33;1.30;;;21.20;46.30;;;;;;4962516;28;20675;-77
2022/05/08 08:41:09;;;;;;;4.15;1.30;;;21.30;45.70;;;;;;4958118;28;20194;-79
2022/05/08 08:49:19;;;;;;;2.30;1.10;;;21.50;45.40;;;;;;4964143;28;20189;-78
2022/05/08 08:51:50;;;;;;;7.40;1.20;;;21.50;45.50;;;;;;4962892;28;20553;-76
2022/05/08 08:54:20;;;;;;;3.33;1.60;;;21.60;45.30;;;;;;4965789;28;20213;-76
2022/05/08 08:56:49;;;;;;;4.03;1.33;;;21.70;45.60;;;;;;4965590;28;21754;-76
2022/05/08 08:59:22;;;;;;;5.50;1.50;;;21.70;45.70;;;;;;4962884;28;20216;-78
2022/05/08 09:01:51;;;;;;;6.50;1.67;;;21.80;45.20;;;;;;4961856;28;20194;-78
2022/05/08 09:04:20;;;;;;;4.30;1.30;;;21.80;45.40;;;;;;4961550;28;20301;-79
2022/05/08 09:06:50;;;;;;;5.00;1.65;;;21.90;45.50;;;;;;4965437;28;20226;-78
2022/05/08 09:09:23;;;;;;;2.40;1.40;;;21.90;45.50;;;;;;4957815;28;20223;-77
2022/05/08 09:11:53;;;;;;;2.85;1.65;;;22.00;45.30;;;;;;4960295;28;20195;-77
2022/05/08 09:14:32;;;;;;;8.02;1.40;;;22.00;45.60;;;;;;4965313;28;20742;-79
2022/05/08 09:17:02;;;;;;;3.50;1.52;;;22.10;45.40;;;;;;4956792;28;20745;-78
2022/05/08 09:19:34;;;;;;;6.40;1.80;;;22.10;45.20;;;;;;4962299;28;20238;-79
2022/05/08 09:22:04;;;;;;;4.28;1.70;;;22.10;44.60;;;;;;4961387;28;20194;-80
2022/05/08 09:24:33;;;;;;;2.80;1.27;;;22.20;43.50;;;;;;4961350;28;20197;-79
2022/05/08 09:27:13;;;;;;;4.85;1.23;;;22.20;43.70;;;;;;4964641;28;20222;-79
2022/05/08 09:29:41;;;;;;;3.10;1.55;;;22.30;43.00;;;;;;4967038;28;20652;-79
2022/05/08 09:32:37;;;;;;;7.32;2.10;;;22.30;42.30;;;;;;4961117;28;20198;-80
2022/05/08 09:35:06;;;;;;;9.27;2.22;;;22.30;42.50;;;;;;4961544;28;20271;-77
2022/05/08 09:37:52;;;;;;;4.05;1.60;;;22.40;43.10;;;;;;4963121;28;20190;-77
2022/05/08 09:40:32;;;;;;;5.38;1.60;;;22.40;43.30;;;;;;4959291;28;20194;-79
2022/05/08 09:43:00;;;;;;;4.28;2.20;;;22.50;43.50;;;;;;4960253;28;20719;-79
2022/05/08 09:45:29;;;;;;;4.68;1.80;;;22.60;43.60;;;;;;4955781;28;20190;-79
2022/05/08 09:47:58;;;;;;;3.45;1.52;;;22.60;42.60;;;;;;4955401;28;20198;-79
2022/05/08 09:50:27;;;;;;;5.18;2.25;;;22.70;42.80;;;;;;4952591;28;20197;-78
2022/05/08 09:52:58;;;;;;;4.53;1.98;;;22.80;42.60;;;;;;4955139;28;20205;-78
2022/05/08 09:55:27;;;;;;;6.32;1.55;;;22.80;41.70;;;;;;4958661;28;20209;-78
2022/05/08 09:57:55;;;;;;;3.20;1.33;;;22.90;42.10;;;;;;4952650;28;20198;-76
2022/05/08 10:00:24;;;;;;;3.65;1.13;;;22.90;41.60;;;;;;4954991;28;20200;-75
2022/05/08 10:02:53;;;;;;;5.80;2.08;;;23.00;41.90;;;;;;4954807;28;20197;-75
2022/05/08 10:05:21;;;;;;;6.10;1.80;;;23.00;42.50;;;;;;4955154;28;20475;-76
2022/05/08 10:07:51;;;;;;;3.90;1.45;;;23.10;42.20;;;;;;4960403;28;20370;-77
2022/05/08 10:16:04;;;;;;;4.43;1.52;;;23.20;41.60;;;;;;4916894;29;20242;-77
2022/05/08 10:18:33;;;;;;;6.43;1.27;;;23.30;41.90;;;;;;4952628;28;20810;-75
2022/05/08 10:21:06;;;;;;;3.85;1.25;;;23.30;41.30;;;;;;4965052;28;20261;-75
2022/05/08 10:23:40;;;;;;;1.95;0.90;;;23.40;40.80;;;;;;4962508;28;20186;-75
2022/05/08 10:26:17;;;;;;;6.07;1.55;;;23.40;41.00;;;;;;4967059;28;20196;-75
2022/05/08 10:29:14;;;;;;;5.85;1.52;;;23.40;40.70;;;;;;4963952;28;20186;-75
2022/05/08 10:31:46;;;;;;;4.85;1.95;;;23.50;41.60;;;;;;4962000;28;20292;-77
2022/05/08 10:34:15;;;;;;;5.43;1.75;;;23.50;41.80;;;;;;4965358;28;20269;-75
2022/05/08 10:37:16;;;;;;;3.95;1.90;;;23.60;41.30;;;;;;4968018;28;20223;-76
2022/05/08 10:39:45;;;;;;;6.03;1.50;;;23.60;41.40;;;;;;4961277;28;20204;-77
2022/05/08 10:42:44;;;;;;;4.97;1.40;;;23.70;40.90;;;;;;4966302;28;20198;-77
2022/05/08 10:45:40;;;;;;;2.78;1.33;;;23.80;41.10;;;;;;4966584;28;20260;-77
2022/05/08 10:48:13;;;;;;;3.63;1.30;;;23.80;41.10;;;;;;4962839;28;20269;-76
2022/05/08 10:50:44;;;;;;;7.00;1.20;;;23.90;41.00;;;;;;4966767;28;20208;-76
2022/05/08 10:53:27;;;;;;;5.32;1.60;;;24.00;40.80;;;;;;4960753;28;20202;-75
2022/05/08 10:56:05;;;;;;;4.85;1.38;;;24.10;40.40;;;;;;4960407;28;20200;-77
2022/05/08 10:58:36;;;;;;;3.33;1.25;;;24.20;39.50;;;;;;4961114;28;20217;-76
2022/05/08 11:01:06;;;;;;;3.72;1.20;;;24.20;40.30;;;;;;4958585;28;20201;-77
2022/05/08 11:03:36;;;;;;;2.83;1.70;;;24.20;37.50;;;;;;4959803;28;20872;-75
2022/05/08 11:06:06;;;;;;;4.47;1.83;;;24.20;37.10;;;;;;4960513;28;20233;-76
2022/05/08 11:08:35;;;;;;;5.38;1.63;;;24.30;36.80;;;;;;4965235;28;20651;-77
2022/05/08 11:11:09;;;;;;;5.57;2.47;;;24.30;37.30;;;;;;4966368;28;20224;-75
2022/05/08 11:13:41;;;;;;;5.68;1.73;;;24.30;36.50;;;;;;4959010;28;20190;-77
2022/05/08 11:16:11;;;;;;;3.45;1.35;;;24.40;37.30;;;;;;4962140;28;20222;-77
2022/05/08 11:18:40;;;;;;;4.43;1.60;;;24.50;37.60;;;;;;4964395;28;20236;-78
2022/05/08 11:21:09;;;;;;;3.75;1.60;;;24.50;37.10;;;;;;4964080;28;20197;-77
2022/05/08 11:23:42;;;;;;;5.78;1.60;;;24.50;37.00;;;;;;4966255;28;20236;-79
2022/05/08 11:26:12;;;;;;;4.30;1.70;;;24.60;36.80;;;;;;4965493;28;20582;-78
2022/05/08 11:28:49;;;;;;;5.07;1.75;;;24.60;36.90;;;;;;4953336;28;20233;-78
2022/05/08 11:31:19;;;;;;;6.97;1.13;;;24.70;36.60;;;;;;4962084;28;20193;-77
2022/05/08 11:36:36;;;;;;;3.35;1.65;;;24.70;35.40;;;;;;4965276;28;20233;-77
2022/05/08 11:39:05;;;;;;;2.80;1.15;;;24.80;35.70;;;;;;4955161;28;20198;-77
2022/05/08 11:41:38;;;;;;;2.67;1.10;;;24.80;35.70;;;;;;4951066;28;20212;-77
2022/05/08 11:44:27;;;;;;;11.15;2.75;;;24.80;34.80;;;;;;4960910;28;20207;-78
2022/05/08 11:46:57;;;;;;;4.47;1.30;;;24.90;34.20;;;;;;4961856;28;20253;-77
2022/05/08 11:49:29;;;;;;;2.72;1.40;;;24.90;35.10;;;;;;4960841;28;20237;-79
2022/05/08 11:51:59;;;;;;;4.80;1.17;;;24.80;35.30;;;;;;4963476;28;20295;-78
2022/05/08 11:54:30;;;;;;;8.85;1.70;;;24.90;35.50;;;;;;4961659;28;20201;-78
2022/05/08 11:57:17;;;;;;;11.35;4.75;;;24.90;35.20;;;;;;4961775;28;20205;-78
2022/05/08 11:59:48;;;;;;;5.18;2.53;;;24.90;35.20;;;;;;4963845;28;20194;-78
2022/05/08 12:02:17;;;;;;;8.80;5.72;;;24.90;35.70;;;;;;4963688;28;20209;-76
2022/05/08 12:04:57;;;;;;;11.68;5.63;;;24.90;35.60;;;;;;4959403;28;20233;-79
2022/05/08 12:07:26;;;;;;;5.18;1.70;;;24.90;35.80;;;;;;4958988;28;20909;-78
2022/05/08 12:09:56;;;;;;;4.68;1.42;;;24.80;35.30;;;;;;4961396;28;20198;-78
2022/05/08 12:12:28;;;;;;;7.30;2.92;;;24.80;35.60;;;;;;4966209;28;20190;-78
2022/05/08 12:15:02;;;;;;;43.05;22.58;;;24.70;36.00;;;;;;4969024;28;20228;-78
2022/05/08 12:17:53;;;;;;;11.90;4.93;;;24.70;36.00;;;;;;4963635;28;20252;-78
2022/05/08 12:20:25;;;;;;;41.83;21.35;;;24.60;35.50;;;;;;4966587;28;20202;-79
2022/05/08 12:23:01;;;;;;;9.93;3.20;;;24.60;36.00;;;;;;4964033;28;20193;-77
2022/05/08 12:25:30;;;;;;;8.05;4.47;;;24.60;36.50;;;;;;4958047;28;20651;-78
2022/05/08 12:27:58;;;;;;;13.35;6.53;;;24.60;36.80;;;;;;4966138;28;20228;-79
2022/05/08 12:30:28;;;;;;;8.10;3.72;;;24.50;36.80;;;;;;4961954;28;20194;-79
2022/05/08 12:32:57;;;;;;;12.50;3.33;;;24.50;36.70;;;;;;4965370;28;20198;-78
2022/05/08 12:35:25;;;;;;;7.90;3.60;;;24.50;36.90;;;;;;4965046;28;20663;-78
2022/05/08 12:37:53;;;;;;;6.70;2.65;;;24.60;37.10;;;;;;4966993;28;20201;-76
2022/05/08 12:40:22;;;;;;;6.47;2.88;;;24.60;37.10;;;;;;4964317;28;20203;-78
2022/05/08 12:42:51;;;;;;;6.25;2.80;;;24.60;36.60;;;;;;4952930;28;20829;-77
2022/05/08 12:45:20;;;;;;;3.15;1.50;;;24.50;36.30;;;;;;4953705;28;20406;-79
2022/05/08 12:47:50;;;;;;;9.27;2.42;;;24.60;36.50;;;;;;4954315;28;20214;-79
2022/05/08 12:50:18;;;;;;;5.35;1.83;;;24.60;36.80;;;;;;4951603;28;20194;-78
2022/05/08 12:52:50;;;;;;;3.90;1.55;;;24.70;37.30;;;;;;4955715;28;20199;-78
2022/05/08 12:55:18;;;;;;;2.25;1.27;;;24.80;37.60;;;;;;4962941;28;20194;-78
2022/05/08 13:00:33;;;;;;;3.28;1.48;;;24.90;36.60;;;;;;4963541;28;20201;-78
2022/05/08 13:03:02;;;;;;;3.38;1.27;;;24.90;36.40;;;;;;4957127;28;20201;-79
2022/05/08 13:05:36;;;;;;;4.18;1.52;;;25.00;36.50;;;;;;4965273;28;20198;-79
2022/05/08 13:08:04;;;;;;;2.97;1.63;;;25.00;36.70;;;;;;4955084;28;20240;-79
2022/05/08 13:10:35;;;;;;;4.55;1.83;;;25.10;36.20;;;;;;4958219;28;20680;-78
2022/05/08 13:13:04;;;;;;;2.42;0.95;;;25.20;35.90;;;;;;4953819;28;20284;-78
2022/05/08 13:15:32;;;;;;;4.13;1.92;;;25.20;35.10;;;;;;4957822;28;20214;-79
2022/05/08 13:18:02;;;;;;;2.67;1.33;;;25.30;36.30;;;;;;4954129;28;20218;-79
2022/05/08 13:20:30;;;;;;;7.90;2.67;;;25.40;36.10;;;;;;4960532;28;20202;-78
2022/05/08 13:22:59;;;;;;;2.85;1.80;;;25.60;36.30;;;;;;4959222;28;20190;-79
2022/05/08 13:25:27;;;;;;;2.97;1.30;;;25.70;36.20;;;;;;4963789;28;20190;-78
2022/05/08 13:27:55;;;;;;;5.05;1.58;;;25.80;36.00;;;;;;4959888;28;20234;-79
2022/05/08 13:30:24;;;;;;;3.33;0.98;;;25.80;35.70;;;;;;4961673;28;20212;-78
2022/05/08 13:32:52;;;;;;;3.63;2.53;;;25.80;35.50;;;;;;4959050;28;20284;-79